Terminal Aerodrome Forecast
Issued by NWS Boston, MA

Home | Current Version | Previous Version | Text Only | Print | Product List | Glossary On
Versions: 1 2 3 4 5 6 7 8 9 10 11 12 13 14 15 16 17 18 19 20 21 22 23 24 25 26 27 28 29 30 31 32 33 34 35 36 37 38 39 40 41 42 43 44 45 46
495
FTUS41 KBOX 182110 AAA
TAFBDL
TAF AMD
KBDL 182110Z 1821/1924 36005KT P6SM BKN006 OVC012
     FM190000 35004KT 5SM -DZ BR OVC007
     FM190600 VRB03KT 2SM BR OVC012
     FM191000 VRB03KT 3SM -DZ BR BKN025
     FM191200 VRB03KT 5SM BR BKN030
     FM191400 VRB03KT P6SM BKN100
     FM191600 31004KT P6SM SCT150=

USA.gov is the U.S. government's official web portal to all federal, state and local government web resources and services.